sensor_id;sensor_type;location;lat;lon;timestamp;P1;durP1;ratioP1;P2;durP2;ratioP2
11921;SDS011;6021;51.182;3.160;2023-11-22T00:01:49;17.03;;;15.33;;
11921;SDS011;6021;51.182;3.160;2023-11-22T00:04:17;17.67;;;15.87;;
11921;SDS011;6021;51.182;3.160;2023-11-22T00:06:46;16.80;;;15.23;;
11921;SDS011;6021;51.182;3.160;2023-11-22T00:09:15;17.50;;;15.90;;
11921;SDS011;6021;51.182;3.160;2023-11-22T00:11:45;18.20;;;16.43;;
11921;SDS011;6021;51.182;3.160;2023-11-22T00:14:13;17.77;;;16.13;;
11921;SDS011;6021;51.182;3.160;2023-11-22T00:16:41;19.47;;;17.57;;
11921;SDS011;6021;51.182;3.160;2023-11-22T00:19:09;18.83;;;17.00;;
11921;SDS011;6021;51.182;3.160;2023-11-22T00:21:38;18.77;;;16.97;;
11921;SDS011;6021;51.182;3.160;2023-11-22T00:24:07;17.73;;;16.03;;
11921;SDS011;6021;51.182;3.160;2023-11-22T00:26:35;18.70;;;16.80;;
11921;SDS011;6021;51.182;3.160;2023-11-22T00:29:04;18.33;;;16.63;;
11921;SDS011;6021;51.182;3.160;2023-11-22T00:31:32;18.00;;;16.30;;
11921;SDS011;6021;51.182;3.160;2023-11-22T00:34:01;18.77;;;16.97;;
11921;SDS011;6021;51.182;3.160;2023-11-22T00:36:29;16.60;;;15.00;;
11921;SDS011;6021;51.182;3.160;2023-11-22T00:38:57;17.73;;;15.93;;
11921;SDS011;6021;51.182;3.160;2023-11-22T00:41:29;17.37;;;15.57;;
11921;SDS011;6021;51.182;3.160;2023-11-22T00:43:59;16.20;;;14.73;;
11921;SDS011;6021;51.182;3.160;2023-11-22T00:46:27;18.67;;;16.83;;
11921;SDS011;6021;51.182;3.160;2023-11-22T00:48:55;18.97;;;17.00;;
11921;SDS011;6021;51.182;3.160;2023-11-22T00:51:24;19.07;;;17.17;;
11921;SDS011;6021;51.182;3.160;2023-11-22T00:53:52;18.63;;;16.63;;
11921;SDS011;6021;51.182;3.160;2023-11-22T00:56:21;17.93;;;16.30;;
11921;SDS011;6021;51.182;3.160;2023-11-22T00:58:50;18.33;;;16.43;;
11921;SDS011;6021;51.182;3.160;2023-11-22T01:01:19;17.63;;;16.03;;
11921;SDS011;6021;51.182;3.160;2023-11-22T01:03:48;16.87;;;15.27;;
11921;SDS011;6021;51.182;3.160;2023-11-22T01:06:16;18.60;;;16.70;;
11921;SDS011;6021;51.182;3.160;2023-11-22T01:08:44;18.63;;;16.73;;
11921;SDS011;6021;51.182;3.160;2023-11-22T01:11:14;18.47;;;16.63;;
11921;SDS011;6021;51.182;3.160;2023-11-22T01:13:42;17.77;;;16.07;;
11921;SDS011;6021;51.182;3.160;2023-11-22T01:16:12;16.80;;;15.20;;
11921;SDS011;6021;51.182;3.160;2023-11-22T01:18:40;17.40;;;15.70;;
11921;SDS011;6021;51.182;3.160;2023-11-22T01:21:09;17.73;;;15.93;;
11921;SDS011;6021;51.182;3.160;2023-11-22T01:23:37;17.30;;;15.53;;
11921;SDS011;6021;51.182;3.160;2023-11-22T01:26:07;17.67;;;15.97;;
11921;SDS011;6021;51.182;3.160;2023-11-22T01:28:36;17.10;;;15.40;;
11921;SDS011;6021;51.182;3.160;2023-11-22T01:31:06;17.47;;;15.77;;
11921;SDS011;6021;51.182;3.160;2023-11-22T01:33:34;18.47;;;16.57;;
11921;SDS011;6021;51.182;3.160;2023-11-22T01:36:03;16.77;;;15.17;;
11921;SDS011;6021;51.182;3.160;2023-11-22T01:38:32;17.00;;;15.30;;
11921;SDS011;6021;51.182;3.160;2023-11-22T01:41:01;18.90;;;17.07;;
11921;SDS011;6021;51.182;3.160;2023-11-22T01:43:29;16.83;;;15.20;;
11921;SDS011;6021;51.182;3.160;2023-11-22T01:45:57;14.90;;;13.50;;
11921;SDS011;6021;51.182;3.160;2023-11-22T01:48:27;17.47;;;15.77;;
11921;SDS011;6021;51.182;3.160;2023-11-22T01:50:56;15.13;;;13.67;;
11921;SDS011;6021;51.182;3.160;2023-11-22T01:53:25;18.13;;;16.37;;
11921;SDS011;6021;51.182;3.160;2023-11-22T01:55:53;17.10;;;15.50;;
11921;SDS011;6021;51.182;3.160;2023-11-22T01:58:22;17.23;;;15.50;;
11921;SDS011;6021;51.182;3.160;2023-11-22T02:00:51;18.07;;;16.27;;
11921;SDS011;6021;51.182;3.160;2023-11-22T02:03:19;20.00;;;17.33;;
11921;SDS011;6021;51.182;3.160;2023-11-22T02:05:48;16.47;;;14.97;;
11921;SDS011;6021;51.182;3.160;2023-11-22T02:08:17;17.23;;;15.57;;
11921;SDS011;6021;51.182;3.160;2023-11-22T02:10:45;19.07;;;17.27;;
11921;SDS011;6021;51.182;3.160;2023-11-22T02:13:16;18.47;;;16.67;;
11921;SDS011;6021;51.182;3.160;2023-11-22T02:15:44;19.47;;;17.10;;
11921;SDS011;6021;51.182;3.160;2023-11-22T02:18:13;21.63;;;19.30;;
11921;SDS011;6021;51.182;3.160;2023-11-22T02:20:42;21.37;;;19.20;;
11921;SDS011;6021;51.182;3.160;2023-11-22T02:23:10;20.47;;;18.50;;
11921;SDS011;6021;51.182;3.160;2023-11-22T02:25:38;23.03;;;20.60;;
11921;SDS011;6021;51.182;3.160;2023-11-22T02:28:07;20.40;;;18.43;;
11921;SDS011;6021;51.182;3.160;2023-11-22T02:30:36;19.33;;;17.50;;
11921;SDS011;6021;51.182;3.160;2023-11-22T02:33:04;20.17;;;18.27;;
11921;SDS011;6021;51.182;3.160;2023-11-22T02:35:33;18.20;;;16.50;;
11921;SDS011;6021;51.182;3.160;2023-11-22T02:38:01;19.10;;;17.20;;
11921;SDS011;6021;51.182;3.160;2023-11-22T02:40:29;19.03;;;16.83;;
11921;SDS011;6021;51.182;3.160;2023-11-22T02:42:58;17.90;;;16.20;;
11921;SDS011;6021;51.182;3.160;2023-11-22T02:45:28;18.23;;;16.53;;
11921;SDS011;6021;51.182;3.160;2023-11-22T02:47:58;21.00;;;18.97;;
11921;SDS011;6021;51.182;3.160;2023-11-22T02:50:28;20.13;;;18.07;;
11921;SDS011;6021;51.182;3.160;2023-11-22T02:52:58;17.90;;;16.20;;
11921;SDS011;6021;51.182;3.160;2023-11-22T02:55:26;19.67;;;17.77;;
11921;SDS011;6021;51.182;3.160;2023-11-22T02:57:55;19.20;;;17.30;;
11921;SDS011;6021;51.182;3.160;2023-11-22T03:00:24;21.40;;;19.20;;
11921;SDS011;6021;51.182;3.160;2023-11-22T03:02:52;21.40;;;19.27;;
11921;SDS011;6021;51.182;3.160;2023-11-22T03:05:22;22.07;;;19.87;;
11921;SDS011;6021;51.182;3.160;2023-11-22T03:07:52;21.57;;;19.37;;
11921;SDS011;6021;51.182;3.160;2023-11-22T03:10:21;23.77;;;18.80;;
11921;SDS011;6021;51.182;3.160;2023-11-22T03:12:49;21.57;;;18.70;;
11921;SDS011;6021;51.182;3.160;2023-11-22T03:15:19;21.30;;;19.00;;
11921;SDS011;6021;51.182;3.160;2023-11-22T03:17:47;20.63;;;18.53;;
11921;SDS011;6021;51.182;3.160;2023-11-22T03:20:16;21.53;;;19.33;;
11921;SDS011;6021;51.182;3.160;2023-11-22T03:22:45;22.83;;;20.00;;
11921;SDS011;6021;51.182;3.160;2023-11-22T03:25:15;21.70;;;19.20;;
11921;SDS011;6021;51.182;3.160;2023-11-22T03:27:44;22.60;;;20.30;;
11921;SDS011;6021;51.182;3.160;2023-11-22T03:30:13;21.33;;;19.23;;
11921;SDS011;6021;51.182;3.160;2023-11-22T03:32:42;22.43;;;20.17;;
11921;SDS011;6021;51.182;3.160;2023-11-22T03:35:10;22.07;;;19.90;;
11921;SDS011;6021;51.182;3.160;2023-11-22T03:37:39;22.17;;;19.93;;
11921;SDS011;6021;51.182;3.160;2023-11-22T03:40:07;22.40;;;19.33;;
11921;SDS011;6021;51.182;3.160;2023-11-22T03:42:36;21.13;;;19.03;;
11921;SDS011;6021;51.182;3.160;2023-11-22T03:45:05;21.37;;;19.27;;
11921;SDS011;6021;51.182;3.160;2023-11-22T03:47:34;20.43;;;18.43;;
11921;SDS011;6021;51.182;3.160;2023-11-22T03:50:05;20.60;;;18.60;;
11921;SDS011;6021;51.182;3.160;2023-11-22T03:52:34;20.53;;;18.50;;
11921;SDS011;6021;51.182;3.160;2023-11-22T03:55:02;19.47;;;17.47;;
11921;SDS011;6021;51.182;3.160;2023-11-22T03:57:31;18.33;;;16.53;;
11921;SDS011;6021;51.182;3.160;2023-11-22T04:00:00;21.03;;;18.83;;
11921;SDS011;6021;51.182;3.160;2023-11-22T04:02:28;19.20;;;17.27;;
11921;SDS011;6021;51.182;3.160;2023-11-22T04:04:56;21.53;;;19.43;;
11921;SDS011;6021;51.182;3.160;2023-11-22T04:07:25;21.07;;;18.87;;
11921;SDS011;6021;51.182;3.160;2023-11-22T04:09:53;20.60;;;18.50;;
11921;SDS011;6021;51.182;3.160;2023-11-22T04:12:22;19.03;;;17.13;;
11921;SDS011;6021;51.182;3.160;2023-11-22T04:14:51;20.50;;;18.50;;
11921;SDS011;6021;51.182;3.160;2023-11-22T04:17:19;21.13;;;19.03;;
11921;SDS011;6021;51.182;3.160;2023-11-22T04:19:48;19.47;;;17.67;;
11921;SDS011;6021;51.182;3.160;2023-11-22T04:22:17;22.33;;;20.03;;
11921;SDS011;6021;51.182;3.160;2023-11-22T04:24:45;20.20;;;18.20;;
11921;SDS011;6021;51.182;3.160;2023-11-22T04:27:14;20.57;;;18.37;;
11921;SDS011;6021;51.182;3.160;2023-11-22T04:29:42;21.27;;;18.93;;
11921;SDS011;6021;51.182;3.160;2023-11-22T04:32:11;21.20;;;18.60;;
11921;SDS011;6021;51.182;3.160;2023-11-22T04:34:39;22.93;;;19.50;;
11921;SDS011;6021;51.182;3.160;2023-11-22T04:37:08;25.40;;;20.90;;
11921;SDS011;6021;51.182;3.160;2023-11-22T04:39:36;24.70;;;22.07;;
11921;SDS011;6021;51.182;3.160;2023-11-22T04:42:05;25.97;;;22.20;;
11921;SDS011;6021;51.182;3.160;2023-11-22T04:44:33;24.13;;;21.43;;
11921;SDS011;6021;51.182;3.160;2023-11-22T04:47:01;23.63;;;20.37;;
11921;SDS011;6021;51.182;3.160;2023-11-22T04:49:31;23.07;;;20.63;;
11921;SDS011;6021;51.182;3.160;2023-11-22T04:52:00;22.83;;;20.33;;
11921;SDS011;6021;51.182;3.160;2023-11-22T04:54:28;26.57;;;22.13;;
11921;SDS011;6021;51.182;3.160;2023-11-22T04:56:56;21.37;;;19.23;;
11921;SDS011;6021;51.182;3.160;2023-11-22T04:59:25;25.03;;;21.60;;
11921;SDS011;6021;51.182;3.160;2023-11-22T05:01:53;21.10;;;18.50;;
11921;SDS011;6021;51.182;3.160;2023-11-22T05:04:22;22.20;;;19.80;;
11921;SDS011;6021;51.182;3.160;2023-11-22T05:06:50;21.07;;;18.87;;
11921;SDS011;6021;51.182;3.160;2023-11-22T05:09:19;21.83;;;19.07;;
11921;SDS011;6021;51.182;3.160;2023-11-22T05:11:47;19.30;;;17.40;;
11921;SDS011;6021;51.182;3.160;2023-11-22T05:14:15;20.47;;;18.30;;
11921;SDS011;6021;51.182;3.160;2023-11-22T05:16:44;19.70;;;17.70;;
11921;SDS011;6021;51.182;3.160;2023-11-22T05:19:12;21.77;;;19.50;;
11921;SDS011;6021;51.182;3.160;2023-11-22T05:21:40;22.67;;;20.30;;
11921;SDS011;6021;51.182;3.160;2023-11-22T05:24:09;23.73;;;21.13;;
11921;SDS011;6021;51.182;3.160;2023-11-22T05:26:37;27.83;;;22.57;;
11921;SDS011;6021;51.182;3.160;2023-11-22T05:29:05;27.40;;;23.30;;
11921;SDS011;6021;51.182;3.160;2023-11-22T05:31:34;29.43;;;23.90;;
11921;SDS011;6021;51.182;3.160;2023-11-22T05:34:04;24.13;;;21.63;;
11921;SDS011;6021;51.182;3.160;2023-11-22T05:36:32;24.30;;;21.70;;
11921;SDS011;6021;51.182;3.160;2023-11-22T05:39:00;25.37;;;22.67;;
11921;SDS011;6021;51.182;3.160;2023-11-22T05:41:30;25.80;;;22.97;;
11921;SDS011;6021;51.182;3.160;2023-11-22T05:43:58;26.43;;;23.03;;
11921;SDS011;6021;51.182;3.160;2023-11-22T05:46:27;28.27;;;24.93;;
11921;SDS011;6021;51.182;3.160;2023-11-22T05:48:55;28.30;;;23.10;;
11921;SDS011;6021;51.182;3.160;2023-11-22T05:51:23;23.63;;;21.23;;
11921;SDS011;6021;51.182;3.160;2023-11-22T05:53:52;23.70;;;21.20;;
11921;SDS011;6021;51.182;3.160;2023-11-22T05:56:20;23.17;;;20.77;;
11921;SDS011;6021;51.182;3.160;2023-11-22T05:58:49;24.73;;;22.10;;
11921;SDS011;6021;51.182;3.160;2023-11-22T06:01:17;24.17;;;21.60;;
11921;SDS011;6021;51.182;3.160;2023-11-22T06:03:45;23.50;;;21.00;;
11921;SDS011;6021;51.182;3.160;2023-11-22T06:06:15;22.23;;;19.93;;
11921;SDS011;6021;51.182;3.160;2023-11-22T06:08:43;21.97;;;19.63;;
11921;SDS011;6021;51.182;3.160;2023-11-22T06:11:12;24.13;;;20.57;;
11921;SDS011;6021;51.182;3.160;2023-11-22T06:13:42;22.60;;;20.30;;
11921;SDS011;6021;51.182;3.160;2023-11-22T06:16:10;21.37;;;19.17;;
11921;SDS011;6021;51.182;3.160;2023-11-22T06:18:38;21.43;;;19.17;;
11921;SDS011;6021;51.182;3.160;2023-11-22T06:21:07;21.60;;;19.27;;
11921;SDS011;6021;51.182;3.160;2023-11-22T06:23:35;20.33;;;18.33;;
11921;SDS011;6021;51.182;3.160;2023-11-22T06:26:04;20.43;;;18.30;;
11921;SDS011;6021;51.182;3.160;2023-11-22T06:28:33;19.40;;;17.50;;
11921;SDS011;6021;51.182;3.160;2023-11-22T06:31:01;19.53;;;17.63;;
11921;SDS011;6021;51.182;3.160;2023-11-22T06:33:30;19.33;;;17.33;;
11921;SDS011;6021;51.182;3.160;2023-11-22T06:35:58;21.10;;;18.87;;
11921;SDS011;6021;51.182;3.160;2023-11-22T06:38:27;20.50;;;18.57;;
11921;SDS011;6021;51.182;3.160;2023-11-22T06:40:55;19.23;;;17.40;;
11921;SDS011;6021;51.182;3.160;2023-11-22T06:43:23;19.07;;;17.27;;
11921;SDS011;6021;51.182;3.160;2023-11-22T06:45:52;19.77;;;17.87;;
11921;SDS011;6021;51.182;3.160;2023-11-22T06:48:20;19.50;;;17.70;;
11921;SDS011;6021;51.182;3.160;2023-11-22T06:50:49;19.47;;;17.47;;
11921;SDS011;6021;51.182;3.160;2023-11-22T06:53:18;19.43;;;17.43;;
11921;SDS011;6021;51.182;3.160;2023-11-22T06:55:47;17.20;;;15.50;;
11921;SDS011;6021;51.182;3.160;2023-11-22T06:58:15;18.87;;;17.00;;
11921;SDS011;6021;51.182;3.160;2023-11-22T07:00:45;17.90;;;16.20;;
11921;SDS011;6021;51.182;3.160;2023-11-22T07:03:14;18.27;;;16.47;;
11921;SDS011;6021;51.182;3.160;2023-11-22T07:05:43;18.37;;;16.47;;
11921;SDS011;6021;51.182;3.160;2023-11-22T07:08:11;19.20;;;17.07;;
11921;SDS011;6021;51.182;3.160;2023-11-22T07:10:41;20.57;;;17.53;;
11921;SDS011;6021;51.182;3.160;2023-11-22T07:13:11;19.30;;;17.37;;
11921;SDS011;6021;51.182;3.160;2023-11-22T07:15:39;19.00;;;17.10;;
11921;SDS011;6021;51.182;3.160;2023-11-22T07:18:08;19.77;;;17.73;;
11921;SDS011;6021;51.182;3.160;2023-11-22T07:20:36;20.40;;;18.40;;
11921;SDS011;6021;51.182;3.160;2023-11-22T07:23:06;20.63;;;18.57;;
11921;SDS011;6021;51.182;3.160;2023-11-22T07:25:36;20.20;;;18.07;;
11921;SDS011;6021;51.182;3.160;2023-11-22T07:28:04;21.13;;;18.57;;
11921;SDS011;6021;51.182;3.160;2023-11-22T07:30:32;21.93;;;19.57;;
11921;SDS011;6021;51.182;3.160;2023-11-22T07:33:02;23.30;;;19.97;;
11921;SDS011;6021;51.182;3.160;2023-11-22T07:35:32;20.80;;;18.60;;
11921;SDS011;6021;51.182;3.160;2023-11-22T07:38:01;21.67;;;19.57;;
11921;SDS011;6021;51.182;3.160;2023-11-22T07:40:30;24.63;;;22.03;;
11921;SDS011;6021;51.182;3.160;2023-11-22T07:42:59;28.53;;;25.73;;
11921;SDS011;6021;51.182;3.160;2023-11-22T07:45:29;26.33;;;23.80;;
11921;SDS011;6021;51.182;3.160;2023-11-22T07:47:58;25.10;;;22.43;;
11921;SDS011;6021;51.182;3.160;2023-11-22T07:50:27;45.50;;;41.10;;
11921;SDS011;6021;51.182;3.160;2023-11-22T07:52:56;33.97;;;30.63;;
11921;SDS011;6021;51.182;3.160;2023-11-22T07:55:24;31.47;;;28.37;;
11921;SDS011;6021;51.182;3.160;2023-11-22T07:57:52;31.50;;;28.50;;
11921;SDS011;6021;51.182;3.160;2023-11-22T08:00:22;28.30;;;25.40;;
11921;SDS011;6021;51.182;3.160;2023-11-22T08:02:51;23.90;;;21.60;;
11921;SDS011;6021;51.182;3.160;2023-11-22T08:05:20;24.60;;;22.20;;
11921;SDS011;6021;51.182;3.160;2023-11-22T08:07:50;27.90;;;24.47;;
11921;SDS011;6021;51.182;3.160;2023-11-22T08:10:18;25.27;;;22.60;;
11921;SDS011;6021;51.182;3.160;2023-11-22T08:12:48;24.67;;;22.17;;
11921;SDS011;6021;51.182;3.160;2023-11-22T08:15:17;26.70;;;22.83;;
11921;SDS011;6021;51.182;3.160;2023-11-22T08:17:46;23.47;;;21.10;;
11921;SDS011;6021;51.182;3.160;2023-11-22T08:20:14;22.87;;;20.43;;
11921;SDS011;6021;51.182;3.160;2023-11-22T08:22:44;24.13;;;21.70;;
11921;SDS011;6021;51.182;3.160;2023-11-22T08:25:13;23.50;;;21.00;;
11921;SDS011;6021;51.182;3.160;2023-11-22T08:27:42;24.40;;;21.90;;
11921;SDS011;6021;51.182;3.160;2023-11-22T08:30:10;25.70;;;22.97;;
11921;SDS011;6021;51.182;3.160;2023-11-22T08:32:42;25.20;;;22.70;;
11921;SDS011;6021;51.182;3.160;2023-11-22T08:35:12;24.00;;;21.57;;
11921;SDS011;6021;51.182;3.160;2023-11-22T08:37:42;24.33;;;21.90;;
11921;SDS011;6021;51.182;3.160;2023-11-22T08:40:11;24.13;;;21.53;;
11921;SDS011;6021;51.182;3.160;2023-11-22T08:42:40;24.43;;;21.93;;
11921;SDS011;6021;51.182;3.160;2023-11-22T08:45:10;25.77;;;23.17;;
11921;SDS011;6021;51.182;3.160;2023-11-22T08:47:44;24.30;;;21.90;;
11921;SDS011;6021;51.182;3.160;2023-11-22T08:50:08;25.60;;;22.80;;
11921;SDS011;6021;51.182;3.160;2023-11-22T08:52:41;24.70;;;22.20;;
11921;SDS011;6021;51.182;3.160;2023-11-22T08:55:11;25.57;;;22.87;;
11921;SDS011;6021;51.182;3.160;2023-11-22T08:57:41;25.40;;;22.70;;
11921;SDS011;6021;51.182;3.160;2023-11-22T09:00:09;24.43;;;21.83;;
11921;SDS011;6021;51.182;3.160;2023-11-22T09:02:39;24.97;;;22.37;;
11921;SDS011;6021;51.182;3.160;2023-11-22T09:05:08;26.00;;;23.23;;
11921;SDS011;6021;51.182;3.160;2023-11-22T09:07:38;24.57;;;22.17;;
11921;SDS011;6021;51.182;3.160;2023-11-22T09:10:07;23.93;;;21.53;;
11921;SDS011;6021;51.182;3.160;2023-11-22T09:12:36;25.20;;;22.60;;
11921;SDS011;6021;51.182;3.160;2023-11-22T09:15:12;24.70;;;22.20;;
11921;SDS011;6021;51.182;3.160;2023-11-22T09:17:39;24.33;;;21.93;;
11921;SDS011;6021;51.182;3.160;2023-11-22T09:20:14;26.57;;;23.80;;
11921;SDS011;6021;51.182;3.160;2023-11-22T09:22:43;25.23;;;22.67;;
11921;SDS011;6021;51.182;3.160;2023-11-22T09:25:15;24.23;;;21.83;;
11921;SDS011;6021;51.182;3.160;2023-11-22T09:27:48;26.80;;;24.07;;
11921;SDS011;6021;51.182;3.160;2023-11-22T09:30:21;24.87;;;22.37;;
11921;SDS011;6021;51.182;3.160;2023-11-22T09:33:05;25.30;;;22.87;;
11921;SDS011;6021;51.182;3.160;2023-11-22T09:35:37;23.33;;;21.23;;
11921;SDS011;6021;51.182;3.160;2023-11-22T09:38:06;23.43;;;21.30;;
11921;SDS011;6021;51.182;3.160;2023-11-22T09:40:48;23.00;;;20.67;;
11921;SDS011;6021;51.182;3.160;2023-11-22T09:43:12;22.47;;;20.37;;
11921;SDS011;6021;51.182;3.160;2023-11-22T09:45:44;24.23;;;21.90;;
11921;SDS011;6021;51.182;3.160;2023-11-22T09:48:16;23.07;;;20.77;;
11921;SDS011;6021;51.182;3.160;2023-11-22T09:51:03;22.67;;;20.53;;
11921;SDS011;6021;51.182;3.160;2023-11-22T09:53:33;24.80;;;22.40;;
11921;SDS011;6021;51.182;3.160;2023-11-22T09:56:03;24.00;;;21.67;;
11921;SDS011;6021;51.182;3.160;2023-11-22T09:58:34;25.07;;;22.67;;
11921;SDS011;6021;51.182;3.160;2023-11-22T10:01:04;24.97;;;22.60;;
11921;SDS011;6021;51.182;3.160;2023-11-22T10:03:34;24.97;;;22.63;;
11921;SDS011;6021;51.182;3.160;2023-11-22T10:06:02;24.33;;;22.03;;
11921;SDS011;6021;51.182;3.160;2023-11-22T10:08:32;24.13;;;21.87;;
11921;SDS011;6021;51.182;3.160;2023-11-22T10:11:02;24.13;;;21.93;;
11921;SDS011;6021;51.182;3.160;2023-11-22T10:13:31;23.70;;;21.40;;
11921;SDS011;6021;51.182;3.160;2023-11-22T10:16:09;23.50;;;21.20;;
11921;SDS011;6021;51.182;3.160;2023-11-22T10:18:42;25.40;;;22.87;;
11921;SDS011;6021;51.182;3.160;2023-11-22T10:21:25;25.90;;;23.30;;
11921;SDS011;6021;51.182;3.160;2023-11-22T10:23:57;25.97;;;23.40;;
11921;SDS011;6021;51.182;3.160;2023-11-22T10:26:29;27.07;;;24.50;;
11921;SDS011;6021;51.182;3.160;2023-11-22T10:28:58;25.83;;;23.43;;
11921;SDS011;6021;51.182;3.160;2023-11-22T10:31:26;26.00;;;23.47;;
11921;SDS011;6021;51.182;3.160;2023-11-22T10:33:55;24.53;;;22.23;;
11921;SDS011;6021;51.182;3.160;2023-11-22T10:36:24;25.27;;;22.63;;
11921;SDS011;6021;51.182;3.160;2023-11-22T10:38:52;24.67;;;22.20;;
11921;SDS011;6021;51.182;3.160;2023-11-22T10:41:22;25.73;;;23.03;;
11921;SDS011;6021;51.182;3.160;2023-11-22T10:43:51;24.73;;;22.40;;
11921;SDS011;6021;51.182;3.160;2023-11-22T10:46:26;24.27;;;21.80;;
11921;SDS011;6021;51.182;3.160;2023-11-22T10:48:57;23.57;;;21.37;;
11921;SDS011;6021;51.182;3.160;2023-11-22T10:51:32;22.57;;;20.30;;
11921;SDS011;6021;51.182;3.160;2023-11-22T10:54:01;20.67;;;18.50;;
11921;SDS011;6021;51.182;3.160;2023-11-22T10:56:32;21.33;;;19.37;;
11921;SDS011;6021;51.182;3.160;2023-11-22T10:59:01;20.90;;;18.67;;
11921;SDS011;6021;51.182;3.160;2023-11-22T11:01:31;19.40;;;17.60;;
11921;SDS011;6021;51.182;3.160;2023-11-22T11:04:02;21.83;;;19.70;;
11921;SDS011;6021;51.182;3.160;2023-11-22T11:06:33;21.70;;;19.70;;
11921;SDS011;6021;51.182;3.160;2023-11-22T11:09:07;21.47;;;19.30;;
11921;SDS011;6021;51.182;3.160;2023-11-22T11:11:34;20.43;;;18.33;;
11921;SDS011;6021;51.182;3.160;2023-11-22T11:14:04;20.60;;;18.70;;
11921;SDS011;6021;51.182;3.160;2023-11-22T11:16:36;20.87;;;18.77;;
11921;SDS011;6021;51.182;3.160;2023-11-22T11:19:08;19.70;;;17.97;;
11921;SDS011;6021;51.182;3.160;2023-11-22T11:22:32;21.40;;;19.40;;
11921;SDS011;6021;51.182;3.160;2023-11-22T11:25:06;22.33;;;20.13;;
11921;SDS011;6021;51.182;3.160;2023-11-22T11:27:35;21.63;;;19.43;;
11921;SDS011;6021;51.182;3.160;2023-11-22T11:33:17;21.50;;;19.30;;
11921;SDS011;6021;51.182;3.160;2023-11-22T11:35:43;20.93;;;18.93;;
11921;SDS011;6021;51.182;3.160;2023-11-22T11:38:13;19.77;;;17.93;;
11921;SDS011;6021;51.182;3.160;2023-11-22T11:40:45;20.03;;;18.07;;
11921;SDS011;6021;51.182;3.160;2023-11-22T11:43:14;20.60;;;18.70;;
11921;SDS011;6021;51.182;3.160;2023-11-22T11:45:43;20.33;;;18.43;;
11921;SDS011;6021;51.182;3.160;2023-11-22T11:48:13;20.43;;;18.43;;
11921;SDS011;6021;51.182;3.160;2023-11-22T11:50:43;20.17;;;18.13;;
11921;SDS011;6021;51.182;3.160;2023-11-22T11:53:13;18.73;;;17.03;;
11921;SDS011;6021;51.182;3.160;2023-11-22T11:55:45;18.23;;;16.53;;
11921;SDS011;6021;51.182;3.160;2023-11-22T11:58:15;19.00;;;17.20;;
11921;SDS011;6021;51.182;3.160;2023-11-22T12:00:43;18.00;;;16.30;;
11921;SDS011;6021;51.182;3.160;2023-11-22T12:03:12;19.00;;;17.07;;
11921;SDS011;6021;51.182;3.160;2023-11-22T12:05:42;17.13;;;15.33;;
11921;SDS011;6021;51.182;3.160;2023-11-22T12:08:12;17.30;;;15.60;;
11921;SDS011;6021;51.182;3.160;2023-11-22T12:10:42;15.90;;;14.50;;
11921;SDS011;6021;51.182;3.160;2023-11-22T12:13:13;17.43;;;15.83;;
11921;SDS011;6021;51.182;3.160;2023-11-22T12:15:43;16.83;;;15.33;;
11921;SDS011;6021;51.182;3.160;2023-11-22T12:18:11;17.13;;;15.43;;
11921;SDS011;6021;51.182;3.160;2023-11-22T12:20:40;15.70;;;14.20;;
11921;SDS011;6021;51.182;3.160;2023-11-22T12:23:09;13.73;;;12.53;;
11921;SDS011;6021;51.182;3.160;2023-11-22T12:25:38;13.90;;;12.70;;
11921;SDS011;6021;51.182;3.160;2023-11-22T12:28:07;13.53;;;12.43;;
11921;SDS011;6021;51.182;3.160;2023-11-22T12:30:37;14.23;;;13.00;;
11921;SDS011;6021;51.182;3.160;2023-11-22T12:33:07;14.50;;;13.00;;
11921;SDS011;6021;51.182;3.160;2023-11-22T12:35:39;14.17;;;12.93;;
11921;SDS011;6021;51.182;3.160;2023-11-22T12:38:08;14.53;;;13.23;;
11921;SDS011;6021;51.182;3.160;2023-11-22T12:40:37;15.83;;;14.33;;
11921;SDS011;6021;51.182;3.160;2023-11-22T12:43:08;15.23;;;13.73;;
11921;SDS011;6021;51.182;3.160;2023-11-22T12:45:38;14.93;;;13.63;;
11921;SDS011;6021;51.182;3.160;2023-11-22T12:48:25;14.83;;;13.53;;
11921;SDS011;6021;51.182;3.160;2023-11-22T12:50:50;14.07;;;12.87;;
11921;SDS011;6021;51.182;3.160;2023-11-22T12:53:20;15.63;;;14.17;;
11921;SDS011;6021;51.182;3.160;2023-11-22T12:55:49;15.53;;;14.20;;
11921;SDS011;6021;51.182;3.160;2023-11-22T12:58:19;16.40;;;14.83;;
11921;SDS011;6021;51.182;3.160;2023-11-22T13:00:49;15.80;;;14.40;;
11921;SDS011;6021;51.182;3.160;2023-11-22T13:03:21;16.10;;;14.60;;
11921;SDS011;6021;51.182;3.160;2023-11-22T13:05:49;14.30;;;13.00;;
11921;SDS011;6021;51.182;3.160;2023-11-22T13:08:21;14.70;;;13.40;;
11921;SDS011;6021;51.182;3.160;2023-11-22T13:10:51;14.40;;;13.07;;
11921;SDS011;6021;51.182;3.160;2023-11-22T13:13:24;15.17;;;13.80;;
11921;SDS011;6021;51.182;3.160;2023-11-22T13:15:54;15.27;;;13.97;;
11921;SDS011;6021;51.182;3.160;2023-11-22T13:18:23;15.13;;;13.73;;
11921;SDS011;6021;51.182;3.160;2023-11-22T13:20:52;13.83;;;12.53;;
11921;SDS011;6021;51.182;3.160;2023-11-22T13:23:21;13.63;;;12.43;;
11921;SDS011;6021;51.182;3.160;2023-11-22T13:25:49;13.47;;;12.27;;
11921;SDS011;6021;51.182;3.160;2023-11-22T13:28:18;13.80;;;12.60;;
11921;SDS011;6021;51.182;3.160;2023-11-22T13:30:46;13.23;;;12.03;;
11921;SDS011;6021;51.182;3.160;2023-11-22T13:33:15;13.37;;;12.10;;
11921;SDS011;6021;51.182;3.160;2023-11-22T13:35:44;13.90;;;12.60;;
11921;SDS011;6021;51.182;3.160;2023-11-22T13:38:13;12.90;;;11.80;;
11921;SDS011;6021;51.182;3.160;2023-11-22T13:40:42;12.87;;;11.77;;
11921;SDS011;6021;51.182;3.160;2023-11-22T13:43:13;13.17;;;12.07;;
11921;SDS011;6021;51.182;3.160;2023-11-22T13:45:43;13.27;;;12.07;;
11921;SDS011;6021;51.182;3.160;2023-11-22T13:48:12;13.10;;;11.80;;
11921;SDS011;6021;51.182;3.160;2023-11-22T13:50:40;13.13;;;11.93;;
11921;SDS011;6021;51.182;3.160;2023-11-22T13:53:09;13.17;;;12.00;;
11921;SDS011;6021;51.182;3.160;2023-11-22T13:55:37;11.77;;;10.77;;
11921;SDS011;6021;51.182;3.160;2023-11-22T13:58:06;11.17;;;10.20;;
11921;SDS011;6021;51.182;3.160;2023-11-22T14:00:35;11.93;;;10.77;;
11921;SDS011;6021;51.182;3.160;2023-11-22T14:03:05;11.50;;;10.50;;
11921;SDS011;6021;51.182;3.160;2023-11-22T14:05:34;12.20;;;11.00;;
11921;SDS011;6021;51.182;3.160;2023-11-22T14:08:04;11.67;;;10.67;;
11921;SDS011;6021;51.182;3.160;2023-11-22T14:10:35;11.90;;;10.80;;
11921;SDS011;6021;51.182;3.160;2023-11-22T14:13:04;11.63;;;10.63;;
11921;SDS011;6021;51.182;3.160;2023-11-22T14:15:32;11.27;;;10.27;;
11921;SDS011;6021;51.182;3.160;2023-11-22T14:18:01;11.37;;;10.37;;
11921;SDS011;6021;51.182;3.160;2023-11-22T14:20:30;12.00;;;10.87;;
11921;SDS011;6021;51.182;3.160;2023-11-22T14:23:00;11.43;;;10.40;;
11921;SDS011;6021;51.182;3.160;2023-11-22T14:25:29;10.63;;;9.70;;
11921;SDS011;6021;51.182;3.160;2023-11-22T14:27:58;11.43;;;10.33;;
11921;SDS011;6021;51.182;3.160;2023-11-22T14:30:26;11.30;;;10.27;;
11921;SDS011;6021;51.182;3.160;2023-11-22T14:32:56;11.30;;;10.30;;
11921;SDS011;6021;51.182;3.160;2023-11-22T14:35:26;11.20;;;10.10;;
11921;SDS011;6021;51.182;3.160;2023-11-22T14:37:54;11.43;;;10.43;;
11921;SDS011;6021;51.182;3.160;2023-11-22T14:40:24;10.80;;;9.80;;
11921;SDS011;6021;51.182;3.160;2023-11-22T14:42:52;11.50;;;10.17;;
11921;SDS011;6021;51.182;3.160;2023-11-22T14:45:21;10.93;;;10.00;;
11921;SDS011;6021;51.182;3.160;2023-11-22T14:47:49;11.20;;;10.17;;
11921;SDS011;6021;51.182;3.160;2023-11-22T14:50:18;11.20;;;10.20;;
11921;SDS011;6021;51.182;3.160;2023-11-22T14:52:47;11.50;;;10.40;;